sensor_id;sensor_type;location;lat;lon;timestamp;P1;durP1;ratioP1;P2;durP2;ratioP2
58294;SDS011;45705;55.592;37.460;2024-03-25T00:00:43;2.15;;;0.95;;
58294;SDS011;45705;55.592;37.460;2024-03-25T00:03:09;1.70;;;0.70;;
58294;SDS011;45705;55.592;37.460;2024-03-25T00:05:34;1.35;;;0.80;;
58294;SDS011;45705;55.592;37.460;2024-03-25T00:08:00;1.20;;;0.90;;
58294;SDS011;45705;55.592;37.460;2024-03-25T00:10:26;0.60;;;0.60;;
58294;SDS011;45705;55.592;37.460;2024-03-25T00:12:52;0.90;;;0.80;;
58294;SDS011;45705;55.592;37.460;2024-03-25T00:15:20;1.30;;;0.95;;
58294;SDS011;45705;55.592;37.460;2024-03-25T00:17:49;1.10;;;0.90;;
58294;SDS011;45705;55.592;37.460;2024-03-25T00:20:15;0.98;;;0.70;;
58294;SDS011;45705;55.592;37.460;2024-03-25T00:22:41;1.00;;;0.80;;
58294;SDS011;45705;55.592;37.460;2024-03-25T00:25:08;1.00;;;0.75;;
58294;SDS011;45705;55.592;37.460;2024-03-25T00:27:34;1.13;;;1.02;;
58294;SDS011;45705;55.592;37.460;2024-03-25T00:30:00;1.00;;;0.90;;
58294;SDS011;45705;55.592;37.460;2024-03-25T00:32:26;1.77;;;1.02;;
58294;SDS011;45705;55.592;37.460;2024-03-25T00:34:51;1.02;;;0.90;;
58294;SDS011;45705;55.592;37.460;2024-03-25T00:37:17;1.23;;;1.00;;
58294;SDS011;45705;55.592;37.460;2024-03-25T00:39:44;0.60;;;0.60;;
58294;SDS011;45705;55.592;37.460;2024-03-25T00:42:10;0.73;;;0.73;;
58294;SDS011;45705;55.592;37.460;2024-03-25T00:44:36;0.73;;;0.73;;
58294;SDS011;45705;55.592;37.460;2024-03-25T00:47:02;1.70;;;1.00;;
58294;SDS011;45705;55.592;37.460;2024-03-25T00:49:28;0.55;;;0.55;;
58294;SDS011;45705;55.592;37.460;2024-03-25T00:51:53;1.45;;;0.80;;
58294;SDS011;45705;55.592;37.460;2024-03-25T00:54:19;0.85;;;0.60;;
58294;SDS011;45705;55.592;37.460;2024-03-25T00:56:45;1.95;;;0.80;;
58294;SDS011;45705;55.592;37.460;2024-03-25T00:59:11;2.17;;;0.63;;
58294;SDS011;45705;55.592;37.460;2024-03-25T01:01:37;0.50;;;0.50;;
58294;SDS011;45705;55.592;37.460;2024-03-25T01:04:03;0.75;;;0.60;;
58294;SDS011;45705;55.592;37.460;2024-03-25T01:06:29;0.73;;;0.60;;
58294;SDS011;45705;55.592;37.460;2024-03-25T01:08:55;0.45;;;0.40;;
58294;SDS011;45705;55.592;37.460;2024-03-25T01:11:21;0.50;;;0.50;;
58294;SDS011;45705;55.592;37.460;2024-03-25T01:13:47;0.85;;;0.70;;
58294;SDS011;45705;55.592;37.460;2024-03-25T01:16:14;0.65;;;0.50;;
58294;SDS011;45705;55.592;37.460;2024-03-25T01:18:39;2.03;;;0.77;;
58294;SDS011;45705;55.592;37.460;2024-03-25T01:21:05;0.85;;;0.65;;
58294;SDS011;45705;55.592;37.460;2024-03-25T01:23:31;0.75;;;0.65;;
58294;SDS011;45705;55.592;37.460;2024-03-25T01:25:57;1.00;;;0.73;;
58294;SDS011;45705;55.592;37.460;2024-03-25T01:28:23;1.10;;;0.70;;
58294;SDS011;45705;55.592;37.460;2024-03-25T01:30:49;1.42;;;0.77;;
58294;SDS011;45705;55.592;37.460;2024-03-25T01:33:15;0.50;;;0.50;;
58294;SDS011;45705;55.592;37.460;2024-03-25T01:35:40;0.73;;;0.60;;
58294;SDS011;45705;55.592;37.460;2024-03-25T01:38:06;0.50;;;0.50;;
58294;SDS011;45705;55.592;37.460;2024-03-25T01:40:32;0.40;;;0.40;;
58294;SDS011;45705;55.592;37.460;2024-03-25T01:43:00;0.73;;;0.50;;
58294;SDS011;45705;55.592;37.460;2024-03-25T01:45:28;0.50;;;0.50;;
58294;SDS011;45705;55.592;37.460;2024-03-25T01:47:59;0.73;;;0.60;;
58294;SDS011;45705;55.592;37.460;2024-03-25T01:50:30;1.15;;;0.60;;
58294;SDS011;45705;55.592;37.460;2024-03-25T01:53:15;0.70;;;0.50;;
58294;SDS011;45705;55.592;37.460;2024-03-25T01:55:41;1.20;;;0.57;;
58294;SDS011;45705;55.592;37.460;2024-03-25T01:58:09;0.40;;;0.40;;
58294;SDS011;45705;55.592;37.460;2024-03-25T02:00:34;0.65;;;0.40;;
58294;SDS011;45705;55.592;37.460;2024-03-25T02:03:01;0.60;;;0.57;;
58294;SDS011;45705;55.592;37.460;2024-03-25T02:05:27;0.57;;;0.55;;
58294;SDS011;45705;55.592;37.460;2024-03-25T02:07:53;0.43;;;0.40;;
58294;SDS011;45705;55.592;37.460;2024-03-25T02:10:21;0.50;;;0.50;;
58294;SDS011;45705;55.592;37.460;2024-03-25T02:12:47;0.55;;;0.55;;
58294;SDS011;45705;55.592;37.460;2024-03-25T02:15:15;0.52;;;0.52;;
58294;SDS011;45705;55.592;37.460;2024-03-25T02:17:41;0.57;;;0.57;;
58294;SDS011;45705;55.592;37.460;2024-03-25T02:20:07;0.50;;;0.50;;
58294;SDS011;45705;55.592;37.460;2024-03-25T02:22:34;0.93;;;0.68;;
58294;SDS011;45705;55.592;37.460;2024-03-25T02:25:05;0.60;;;0.60;;
58294;SDS011;45705;55.592;37.460;2024-03-25T02:27:33;0.77;;;0.60;;
58294;SDS011;45705;55.592;37.460;2024-03-25T02:30:06;0.50;;;0.50;;
58294;SDS011;45705;55.592;37.460;2024-03-25T02:32:33;0.60;;;0.60;;
58294;SDS011;45705;55.592;37.460;2024-03-25T02:35:00;1.13;;;0.60;;
58294;SDS011;45705;55.592;37.460;2024-03-25T02:39:55;1.42;;;0.88;;
58294;SDS011;45705;55.592;37.460;2024-03-25T02:42:24;0.82;;;0.60;;
58294;SDS011;45705;55.592;37.460;2024-03-25T02:44:53;0.50;;;0.50;;
58294;SDS011;45705;55.592;37.460;2024-03-25T02:47:19;1.13;;;0.70;;
58294;SDS011;45705;55.592;37.460;2024-03-25T02:49:45;0.90;;;0.70;;
58294;SDS011;45705;55.592;37.460;2024-03-25T02:52:12;1.98;;;1.25;;
58294;SDS011;45705;55.592;37.460;2024-03-25T02:54:37;0.73;;;0.73;;
58294;SDS011;45705;55.592;37.460;2024-03-25T02:57:03;0.98;;;0.70;;
58294;SDS011;45705;55.592;37.460;2024-03-25T02:59:29;0.98;;;0.80;;
58294;SDS011;45705;55.592;37.460;2024-03-25T03:01:55;1.10;;;0.80;;
58294;SDS011;45705;55.592;37.460;2024-03-25T03:04:20;0.85;;;0.70;;
58294;SDS011;45705;55.592;37.460;2024-03-25T03:06:46;0.88;;;0.82;;
58294;SDS011;45705;55.592;37.460;2024-03-25T03:09:12;1.00;;;0.90;;
58294;SDS011;45705;55.592;37.460;2024-03-25T03:11:38;1.05;;;0.93;;
58294;SDS011;45705;55.592;37.460;2024-03-25T03:14:03;0.70;;;0.70;;
58294;SDS011;45705;55.592;37.460;2024-03-25T03:16:30;0.73;;;0.70;;
58294;SDS011;45705;55.592;37.460;2024-03-25T03:18:55;1.05;;;0.80;;
58294;SDS011;45705;55.592;37.460;2024-03-25T03:23:59;0.88;;;0.70;;
58294;SDS011;45705;55.592;37.460;2024-03-25T03:26:25;0.98;;;0.88;;
58294;SDS011;45705;55.592;37.460;2024-03-25T03:28:55;2.47;;;0.80;;
58294;SDS011;45705;55.592;37.460;2024-03-25T03:31:22;0.80;;;0.80;;
58294;SDS011;45705;55.592;37.460;2024-03-25T03:33:48;0.90;;;0.90;;
58294;SDS011;45705;55.592;37.460;2024-03-25T03:36:15;0.80;;;0.80;;
58294;SDS011;45705;55.592;37.460;2024-03-25T03:38:44;1.77;;;1.00;;
58294;SDS011;45705;55.592;37.460;2024-03-25T03:41:10;1.30;;;0.90;;
58294;SDS011;45705;55.592;37.460;2024-03-25T03:43:36;1.58;;;1.13;;
58294;SDS011;45705;55.592;37.460;2024-03-25T03:46:02;2.05;;;1.17;;
58294;SDS011;45705;55.592;37.460;2024-03-25T03:48:28;1.67;;;1.23;;
58294;SDS011;45705;55.592;37.460;2024-03-25T03:50:54;1.73;;;1.33;;
58294;SDS011;45705;55.592;37.460;2024-03-25T03:53:20;1.55;;;1.30;;
58294;SDS011;45705;55.592;37.460;2024-03-25T03:55:59;1.40;;;1.20;;
58294;SDS011;45705;55.592;37.460;2024-03-25T03:58:27;1.05;;;0.90;;
58294;SDS011;45705;55.592;37.460;2024-03-25T04:00:54;1.08;;;0.90;;
58294;SDS011;45705;55.592;37.460;2024-03-25T04:03:20;1.20;;;1.10;;
58294;SDS011;45705;55.592;37.460;2024-03-25T04:05:46;1.23;;;1.13;;
58294;SDS011;45705;55.592;37.460;2024-03-25T04:08:12;1.75;;;1.20;;
58294;SDS011;45705;55.592;37.460;2024-03-25T04:10:38;1.33;;;0.90;;
58294;SDS011;45705;55.592;37.460;2024-03-25T04:13:05;1.48;;;1.08;;
58294;SDS011;45705;55.592;37.460;2024-03-25T04:15:34;1.35;;;1.00;;
58294;SDS011;45705;55.592;37.460;2024-03-25T04:18:00;1.40;;;0.90;;
58294;SDS011;45705;55.592;37.460;2024-03-25T04:20:27;1.10;;;1.00;;
58294;SDS011;45705;55.592;37.460;2024-03-25T04:22:54;1.05;;;0.90;;
58294;SDS011;45705;55.592;37.460;2024-03-25T04:25:22;1.35;;;1.10;;
58294;SDS011;45705;55.592;37.460;2024-03-25T04:27:47;2.58;;;1.00;;
58294;SDS011;45705;55.592;37.460;2024-03-25T04:30:14;1.30;;;0.90;;
58294;SDS011;45705;55.592;37.460;2024-03-25T04:32:40;1.23;;;1.00;;
58294;SDS011;45705;55.592;37.460;2024-03-25T04:35:06;1.33;;;0.80;;
58294;SDS011;45705;55.592;37.460;2024-03-25T04:37:33;2.42;;;1.30;;
58294;SDS011;45705;55.592;37.460;2024-03-25T04:39:59;2.22;;;1.10;;
58294;SDS011;45705;55.592;37.460;2024-03-25T04:42:26;2.20;;;1.10;;
58294;SDS011;45705;55.592;37.460;2024-03-25T04:44:52;1.67;;;1.20;;
58294;SDS011;45705;55.592;37.460;2024-03-25T04:47:17;2.30;;;1.10;;
58294;SDS011;45705;55.592;37.460;2024-03-25T04:49:43;1.35;;;1.23;;
58294;SDS011;45705;55.592;37.460;2024-03-25T04:52:12;1.30;;;1.20;;
58294;SDS011;45705;55.592;37.460;2024-03-25T04:54:42;1.95;;;1.10;;
58294;SDS011;45705;55.592;37.460;2024-03-25T04:57:08;2.70;;;1.30;;
58294;SDS011;45705;55.592;37.460;2024-03-25T04:59:34;2.80;;;1.35;;
58294;SDS011;45705;55.592;37.460;2024-03-25T05:02:01;3.90;;;1.55;;
58294;SDS011;45705;55.592;37.460;2024-03-25T05:04:27;1.63;;;1.48;;
58294;SDS011;45705;55.592;37.460;2024-03-25T05:06:54;1.90;;;1.35;;
58294;SDS011;45705;55.592;37.460;2024-03-25T05:09:20;1.52;;;1.40;;
58294;SDS011;45705;55.592;37.460;2024-03-25T05:11:46;1.90;;;1.40;;
58294;SDS011;45705;55.592;37.460;2024-03-25T05:14:11;1.85;;;1.13;;
58294;SDS011;45705;55.592;37.460;2024-03-25T05:16:37;2.15;;;1.42;;
58294;SDS011;45705;55.592;37.460;2024-03-25T05:19:03;2.70;;;1.70;;
58294;SDS011;45705;55.592;37.460;2024-03-25T05:21:30;4.05;;;1.90;;
58294;SDS011;45705;55.592;37.460;2024-03-25T05:23:56;4.68;;;2.20;;
58294;SDS011;45705;55.592;37.460;2024-03-25T05:26:22;4.53;;;2.78;;
58294;SDS011;45705;55.592;37.460;2024-03-25T05:28:56;2.83;;;1.60;;
58294;SDS011;45705;55.592;37.460;2024-03-25T05:31:23;1.90;;;1.60;;
58294;SDS011;45705;55.592;37.460;2024-03-25T05:33:50;3.05;;;1.80;;
58294;SDS011;45705;55.592;37.460;2024-03-25T05:36:16;2.35;;;1.80;;
58294;SDS011;45705;55.592;37.460;2024-03-25T05:38:43;3.90;;;1.40;;
58294;SDS011;45705;55.592;37.460;2024-03-25T05:41:10;2.83;;;2.03;;
58294;SDS011;45705;55.592;37.460;2024-03-25T05:43:36;3.38;;;2.10;;
58294;SDS011;45705;55.592;37.460;2024-03-25T05:46:03;3.55;;;1.75;;
58294;SDS011;45705;55.592;37.460;2024-03-25T05:48:30;2.20;;;1.60;;
58294;SDS011;45705;55.592;37.460;2024-03-25T05:53:28;3.97;;;1.67;;
58294;SDS011;45705;55.592;37.460;2024-03-25T05:55:55;1.80;;;1.50;;
58294;SDS011;45705;55.592;37.460;2024-03-25T05:58:21;3.55;;;1.75;;
58294;SDS011;45705;55.592;37.460;2024-03-25T06:00:51;2.78;;;1.63;;
58294;SDS011;45705;55.592;37.460;2024-03-25T06:03:18;2.35;;;1.70;;
58294;SDS011;45705;55.592;37.460;2024-03-25T06:05:44;1.67;;;1.40;;
58294;SDS011;45705;55.592;37.460;2024-03-25T06:08:10;2.58;;;1.50;;
58294;SDS011;45705;55.592;37.460;2024-03-25T06:10:45;2.85;;;1.70;;
58294;SDS011;45705;55.592;37.460;2024-03-25T06:13:11;2.58;;;1.30;;
58294;SDS011;45705;55.592;37.460;2024-03-25T06:15:37;1.77;;;1.42;;
58294;SDS011;45705;55.592;37.460;2024-03-25T06:18:03;3.53;;;1.30;;
58294;SDS011;45705;55.592;37.460;2024-03-25T06:20:28;2.28;;;1.40;;
58294;SDS011;45705;55.592;37.460;2024-03-25T06:22:54;1.73;;;1.25;;
58294;SDS011;45705;55.592;37.460;2024-03-25T06:25:20;2.30;;;1.40;;
58294;SDS011;45705;55.592;37.460;2024-03-25T06:27:46;2.55;;;1.52;;
58294;SDS011;45705;55.592;37.460;2024-03-25T06:33:01;2.13;;;1.20;;
58294;SDS011;45705;55.592;37.460;2024-03-25T06:35:45;1.48;;;1.20;;
58294;SDS011;45705;55.592;37.460;2024-03-25T06:38:11;1.98;;;1.63;;
58294;SDS011;45705;55.592;37.460;2024-03-25T06:40:37;2.55;;;1.40;;
58294;SDS011;45705;55.592;37.460;2024-03-25T06:43:03;5.65;;;1.45;;
58294;SDS011;45705;55.592;37.460;2024-03-25T06:45:30;2.65;;;1.52;;
58294;SDS011;45705;55.592;37.460;2024-03-25T06:47:56;2.33;;;1.50;;
58294;SDS011;45705;55.592;37.460;2024-03-25T06:50:24;3.75;;;1.63;;
58294;SDS011;45705;55.592;37.460;2024-03-25T06:52:49;2.95;;;1.70;;
58294;SDS011;45705;55.592;37.460;2024-03-25T06:55:16;2.13;;;1.30;;
58294;SDS011;45705;55.592;37.460;2024-03-25T06:57:44;3.47;;;1.60;;
58294;SDS011;45705;55.592;37.460;2024-03-25T07:00:10;2.42;;;1.40;;
58294;SDS011;45705;55.592;37.460;2024-03-25T07:02:39;1.85;;;1.38;;
58294;SDS011;45705;55.592;37.460;2024-03-25T07:05:07;3.33;;;1.48;;
58294;SDS011;45705;55.592;37.460;2024-03-25T07:07:34;4.57;;;1.60;;
58294;SDS011;45705;55.592;37.460;2024-03-25T07:10:00;8.10;;;1.30;;
58294;SDS011;45705;55.592;37.460;2024-03-25T07:12:31;1.92;;;1.30;;
58294;SDS011;45705;55.592;37.460;2024-03-25T07:14:58;3.58;;;1.60;;
58294;SDS011;45705;55.592;37.460;2024-03-25T07:17:24;3.30;;;1.70;;
58294;SDS011;45705;55.592;37.460;2024-03-25T07:19:51;5.40;;;1.75;;
58294;SDS011;45705;55.592;37.460;2024-03-25T07:22:18;4.10;;;1.73;;
58294;SDS011;45705;55.592;37.460;2024-03-25T07:24:44;3.22;;;1.48;;
58294;SDS011;45705;55.592;37.460;2024-03-25T07:27:11;4.75;;;1.75;;
58294;SDS011;45705;55.592;37.460;2024-03-25T07:29:38;3.67;;;1.77;;
58294;SDS011;45705;55.592;37.460;2024-03-25T07:32:04;4.75;;;1.70;;
58294;SDS011;45705;55.592;37.460;2024-03-25T07:34:30;2.72;;;1.40;;
58294;SDS011;45705;55.592;37.460;2024-03-25T07:36:56;5.25;;;2.67;;
58294;SDS011;45705;55.592;37.460;2024-03-25T07:39:22;4.00;;;1.98;;
58294;SDS011;45705;55.592;37.460;2024-03-25T07:41:53;2.92;;;1.60;;
58294;SDS011;45705;55.592;37.460;2024-03-25T07:44:19;4.43;;;1.70;;
58294;SDS011;45705;55.592;37.460;2024-03-25T07:46:46;3.05;;;1.38;;
58294;SDS011;45705;55.592;37.460;2024-03-25T07:49:12;4.50;;;1.30;;
58294;SDS011;45705;55.592;37.460;2024-03-25T07:51:39;6.57;;;1.65;;
58294;SDS011;45705;55.592;37.460;2024-03-25T07:54:05;3.33;;;1.50;;
58294;SDS011;45705;55.592;37.460;2024-03-25T07:56:31;5.22;;;1.65;;
58294;SDS011;45705;55.592;37.460;2024-03-25T07:59:03;5.03;;;1.60;;
58294;SDS011;45705;55.592;37.460;2024-03-25T08:01:29;5.38;;;1.48;;
58294;SDS011;45705;55.592;37.460;2024-03-25T08:03:55;3.42;;;1.48;;
58294;SDS011;45705;55.592;37.460;2024-03-25T08:06:21;4.35;;;1.52;;
58294;SDS011;45705;55.592;37.460;2024-03-25T08:08:47;2.20;;;1.52;;
58294;SDS011;45705;55.592;37.460;2024-03-25T08:11:13;2.40;;;1.48;;
58294;SDS011;45705;55.592;37.460;2024-03-25T08:13:38;4.30;;;1.45;;
58294;SDS011;45705;55.592;37.460;2024-03-25T08:16:04;5.00;;;1.60;;
58294;SDS011;45705;55.592;37.460;2024-03-25T08:18:30;5.07;;;1.60;;
58294;SDS011;45705;55.592;37.460;2024-03-25T08:20:55;6.72;;;1.33;;
58294;SDS011;45705;55.592;37.460;2024-03-25T08:23:21;2.03;;;1.33;;
58294;SDS011;45705;55.592;37.460;2024-03-25T08:25:47;3.17;;;1.30;;
58294;SDS011;45705;55.592;37.460;2024-03-25T08:28:12;4.82;;;1.30;;
58294;SDS011;45705;55.592;37.460;2024-03-25T08:30:38;3.00;;;1.60;;
58294;SDS011;45705;55.592;37.460;2024-03-25T08:33:04;4.70;;;1.60;;
58294;SDS011;45705;55.592;37.460;2024-03-25T08:35:30;4.10;;;1.63;;
58294;SDS011;45705;55.592;37.460;2024-03-25T08:37:55;5.55;;;1.92;;
58294;SDS011;45705;55.592;37.460;2024-03-25T08:40:21;3.20;;;2.05;;
58294;SDS011;45705;55.592;37.460;2024-03-25T08:42:47;2.10;;;1.48;;
58294;SDS011;45705;55.592;37.460;2024-03-25T08:45:12;3.05;;;1.63;;
58294;SDS011;45705;55.592;37.460;2024-03-25T08:47:38;2.85;;;1.60;;
58294;SDS011;45705;55.592;37.460;2024-03-25T08:50:06;3.72;;;1.95;;
58294;SDS011;45705;55.592;37.460;2024-03-25T08:52:32;2.20;;;1.50;;
58294;SDS011;45705;55.592;37.460;2024-03-25T08:54:57;5.15;;;1.45;;
58294;SDS011;45705;55.592;37.460;2024-03-25T08:57:23;4.95;;;1.52;;
58294;SDS011;45705;55.592;37.460;2024-03-25T08:59:49;10.70;;;1.58;;
58294;SDS011;45705;55.592;37.460;2024-03-25T09:02:15;2.58;;;1.63;;
58294;SDS011;45705;55.592;37.460;2024-03-25T09:04:42;4.25;;;1.50;;
58294;SDS011;45705;55.592;37.460;2024-03-25T09:07:08;4.80;;;1.85;;
58294;SDS011;45705;55.592;37.460;2024-03-25T09:09:34;5.55;;;1.73;;
58294;SDS011;45705;55.592;37.460;2024-03-25T09:12:18;2.10;;;1.42;;
58294;SDS011;45705;55.592;37.460;2024-03-25T09:14:43;3.55;;;1.70;;
58294;SDS011;45705;55.592;37.460;2024-03-25T09:17:09;4.18;;;1.80;;
58294;SDS011;45705;55.592;37.460;2024-03-25T09:19:35;6.03;;;2.17;;
58294;SDS011;45705;55.592;37.460;2024-03-25T09:22:00;5.32;;;2.00;;
58294;SDS011;45705;55.592;37.460;2024-03-25T09:24:26;5.88;;;1.70;;
58294;SDS011;45705;55.592;37.460;2024-03-25T09:26:52;4.78;;;1.60;;
58294;SDS011;45705;55.592;37.460;2024-03-25T09:29:18;8.00;;;1.83;;
58294;SDS011;45705;55.592;37.460;2024-03-25T09:31:44;3.22;;;1.75;;
58294;SDS011;45705;55.592;37.460;2024-03-25T09:34:10;3.75;;;1.70;;
58294;SDS011;45705;55.592;37.460;2024-03-25T09:36:35;4.30;;;1.92;;
58294;SDS011;45705;55.592;37.460;2024-03-25T09:39:02;3.83;;;1.85;;
58294;SDS011;45705;55.592;37.460;2024-03-25T09:41:30;7.23;;;1.80;;
58294;SDS011;45705;55.592;37.460;2024-03-25T09:44:00;3.38;;;1.60;;
58294;SDS011;45705;55.592;37.460;2024-03-25T09:46:26;5.00;;;1.80;;
58294;SDS011;45705;55.592;37.460;2024-03-25T09:48:52;9.88;;;1.83;;
58294;SDS011;45705;55.592;37.460;2024-03-25T09:51:19;4.55;;;1.90;;
58294;SDS011;45705;55.592;37.460;2024-03-25T09:53:45;3.30;;;1.58;;
58294;SDS011;45705;55.592;37.460;2024-03-25T09:56:14;3.67;;;1.95;;
58294;SDS011;45705;55.592;37.460;2024-03-25T09:58:41;4.07;;;1.80;;
58294;SDS011;45705;55.592;37.460;2024-03-25T10:01:09;4.72;;;1.88;;
58294;SDS011;45705;55.592;37.460;2024-03-25T10:03:35;4.18;;;1.67;;
58294;SDS011;45705;55.592;37.460;2024-03-25T10:06:01;4.25;;;1.60;;
58294;SDS011;45705;55.592;37.460;2024-03-25T10:08:27;5.30;;;1.92;;
58294;SDS011;45705;55.592;37.460;2024-03-25T10:10:56;5.10;;;2.38;;
58294;SDS011;45705;55.592;37.460;2024-03-25T10:13:22;5.22;;;2.40;;
58294;SDS011;45705;55.592;37.460;2024-03-25T10:15:49;4.30;;;2.00;;
58294;SDS011;45705;55.592;37.460;2024-03-25T10:18:15;5.43;;;2.03;;
58294;SDS011;45705;55.592;37.460;2024-03-25T10:20:50;3.33;;;1.80;;
58294;SDS011;45705;55.592;37.460;2024-03-25T10:23:23;5.25;;;2.13;;
58294;SDS011;45705;55.592;37.460;2024-03-25T10:25:53;2.72;;;1.60;;
58294;SDS011;45705;55.592;37.460;2024-03-25T10:28:19;3.65;;;1.92;;
58294;SDS011;45705;55.592;37.460;2024-03-25T10:30:45;3.38;;;1.85;;
58294;SDS011;45705;55.592;37.460;2024-03-25T10:33:11;4.30;;;1.80;;
58294;SDS011;45705;55.592;37.460;2024-03-25T10:35:38;5.50;;;2.10;;
58294;SDS011;45705;55.592;37.460;2024-03-25T10:38:07;7.32;;;2.20;;
58294;SDS011;45705;55.592;37.460;2024-03-25T10:40:37;5.93;;;2.00;;
58294;SDS011;45705;55.592;37.460;2024-03-25T10:43:05;5.13;;;2.03;;
58294;SDS011;45705;55.592;37.460;2024-03-25T10:45:33;4.55;;;2.00;;
58294;SDS011;45705;55.592;37.460;2024-03-25T10:48:02;7.35;;;2.38;;
58294;SDS011;45705;55.592;37.460;2024-03-25T10:50:34;4.88;;;2.20;;
58294;SDS011;45705;55.592;37.460;2024-03-25T10:53:00;4.57;;;1.90;;
58294;SDS011;45705;55.592;37.460;2024-03-25T10:55:29;3.95;;;2.10;;
58294;SDS011;45705;55.592;37.460;2024-03-25T10:57:56;4.78;;;2.33;;
58294;SDS011;45705;55.592;37.460;2024-03-25T11:00:23;8.10;;;2.28;;
58294;SDS011;45705;55.592;37.460;2024-03-25T11:02:48;5.72;;;2.40;;
58294;SDS011;45705;55.592;37.460;2024-03-25T11:05:16;9.60;;;2.38;;
58294;SDS011;45705;55.592;37.460;2024-03-25T11:07:42;6.40;;;2.20;;
58294;SDS011;45705;55.592;37.460;2024-03-25T11:10:09;5.10;;;2.78;;
58294;SDS011;45705;55.592;37.460;2024-03-25T11:12:37;5.90;;;2.55;;
58294;SDS011;45705;55.592;37.460;2024-03-25T11:15:05;4.45;;;2.40;;
58294;SDS011;45705;55.592;37.460;2024-03-25T11:17:34;3.20;;;2.47;;
58294;SDS011;45705;55.592;37.460;2024-03-25T11:20:09;4.00;;;2.13;;
58294;SDS011;45705;55.592;37.460;2024-03-25T11:22:36;4.85;;;2.20;;
58294;SDS011;45705;55.592;37.460;2024-03-25T11:25:16;7.25;;;2.63;;
58294;SDS011;45705;55.592;37.460;2024-03-25T11:27:44;6.82;;;2.28;;
58294;SDS011;45705;55.592;37.460;2024-03-25T11:30:11;7.70;;;2.40;;
58294;SDS011;45705;55.592;37.460;2024-03-25T11:32:51;3.05;;;2.05;;
58294;SDS011;45705;55.592;37.460;2024-03-25T11:35:18;6.57;;;1.88;;
58294;SDS011;45705;55.592;37.460;2024-03-25T11:37:44;5.93;;;2.40;;
58294;SDS011;45705;55.592;37.460;2024-03-25T11:40:11;5.90;;;2.45;;
58294;SDS011;45705;55.592;37.460;2024-03-25T11:42:43;4.75;;;2.10;;
58294;SDS011;45705;55.592;37.460;2024-03-25T11:45:14;3.83;;;2.15;;
58294;SDS011;45705;55.592;37.460;2024-03-25T11:47:43;5.75;;;1.98;;
58294;SDS011;45705;55.592;37.460;2024-03-25T11:50:14;5.80;;;2.05;;
58294;SDS011;45705;55.592;37.460;2024-03-25T11:52:43;7.13;;;2.70;;
58294;SDS011;45705;55.592;37.460;2024-03-25T11:55:09;6.38;;;2.13;;
58294;SDS011;45705;55.592;37.460;2024-03-25T11:57:38;7.40;;;2.30;;
58294;SDS011;45705;55.592;37.460;2024-03-25T12:00:04;5.32;;;2.30;;
58294;SDS011;45705;55.592;37.460;2024-03-25T12:02:44;5.75;;;2.50;;
58294;SDS011;45705;55.592;37.460;2024-03-25T12:05:13;7.15;;;2.75;;
58294;SDS011;45705;55.592;37.460;2024-03-25T12:07:40;8.30;;;2.60;;
58294;SDS011;45705;55.592;37.460;2024-03-25T12:10:06;17.65;;;8.82;;
58294;SDS011;45705;55.592;37.460;2024-03-25T12:12:51;7.03;;;2.85;;
58294;SDS011;45705;55.592;37.460;2024-03-25T12:15:20;3.85;;;2.30;;
58294;SDS011;45705;55.592;37.460;2024-03-25T12:17:47;7.53;;;2.90;;
58294;SDS011;45705;55.592;37.460;2024-03-25T12:20:13;7.43;;;2.83;;
58294;SDS011;45705;55.592;37.460;2024-03-25T12:22:42;6.68;;;2.75;;
58294;SDS011;45705;55.592;37.460;2024-03-25T12:25:08;5.82;;;2.55;;
58294;SDS011;45705;55.592;37.460;2024-03-25T12:27:35;9.75;;;2.50;;
58294;SDS011;45705;55.592;37.460;2024-03-25T12:30:04;8.68;;;2.80;;
58294;SDS011;45705;55.592;37.460;2024-03-25T12:35:02;7.68;;;2.75;;
58294;SDS011;45705;55.592;37.460;2024-03-25T12:37:32;7.00;;;2.55;;
58294;SDS011;45705;55.592;37.460;2024-03-25T12:39:58;5.18;;;2.70;;
58294;SDS011;45705;55.592;37.460;2024-03-25T12:42:25;9.98;;;3.47;;
58294;SDS011;45705;55.592;37.460;2024-03-25T12:44:52;4.68;;;2.78;;
58294;SDS011;45705;55.592;37.460;2024-03-25T12:47:19;7.15;;;2.53;;
58294;SDS011;45705;55.592;37.460;2024-03-25T12:49:45;3.67;;;2.30;;
58294;SDS011;45705;55.592;37.460;2024-03-25T12:52:11;4.25;;;2.10;;
58294;SDS011;45705;55.592;37.460;2024-03-25T12:54:37;9.05;;;2.45;;
58294;SDS011;45705;55.592;37.460;2024-03-25T12:57:03;7.90;;;2.67;;
58294;SDS011;45705;55.592;37.460;2024-03-25T12:59:29;5.05;;;2.25;;
58294;SDS011;45705;55.592;37.460;2024-03-25T13:01:54;7.57;;;2.38;;
58294;SDS011;45705;55.592;37.460;2024-03-25T13:04:21;5.20;;;2.15;;
58294;SDS011;45705;55.592;37.460;2024-03-25T13:06:47;6.45;;;2.83;;
58294;SDS011;45705;55.592;37.460;2024-03-25T13:09:13;7.05;;;3.00;;
58294;SDS011;45705;55.592;37.460;2024-03-25T13:11:39;6.97;;;2.67;;
58294;SDS011;45705;55.592;37.460;2024-03-25T13:14:05;3.75;;;2.40;;
58294;SDS011;45705;55.592;37.460;2024-03-25T13:16:33;6.18;;;2.58;;
58294;SDS011;45705;55.592;37.460;2024-03-25T13:18:59;4.68;;;2.10;;
58294;SDS011;45705;55.592;37.460;2024-03-25T13:21:25;7.63;;;2.33;;
58294;SDS011;45705;55.592;37.460;2024-03-25T13:23:54;5.40;;;2.05;;
58294;SDS011;45705;55.592;37.460;2024-03-25T13:26:20;3.13;;;2.00;;
58294;SDS011;45705;55.592;37.460;2024-03-25T13:28:45;5.65;;;2.20;;
58294;SDS011;45705;55.592;37.460;2024-03-25T13:31:11;6.75;;;2.72;;
58294;SDS011;45705;55.592;37.460;2024-03-25T13:33:38;6.93;;;3.10;;
58294;SDS011;45705;55.592;37.460;2024-03-25T13:36:05;6.47;;;2.85;;
58294;SDS011;45705;55.592;37.460;2024-03-25T13:38:31;8.27;;;3.03;;
58294;SDS011;45705;55.592;37.460;2024-03-25T13:40:59;6.68;;;3.20;;
58294;SDS011;45705;55.592;37.460;2024-03-25T13:43:25;6.35;;;2.80;;
58294;SDS011;45705;55.592;37.460;2024-03-25T13:45:50;8.55;;;3.20;;
58294;SDS011;45705;55.592;37.460;2024-03-25T13:48:16;4.90;;;2.60;;
58294;SDS011;45705;55.592;37.460;2024-03-25T13:50:42;11.20;;;3.65;;
58294;SDS011;45705;55.592;37.460;2024-03-25T13:53:08;10.02;;;3.05;;
58294;SDS011;45705;55.592;37.460;2024-03-25T13:55:35;5.63;;;2.50;;
58294;SDS011;45705;55.592;37.460;2024-03-25T13:58:01;7.28;;;3.10;;
58294;SDS011;45705;55.592;37.460;2024-03-25T14:00:27;6.05;;;3.25;;
58294;SDS011;45705;55.592;37.460;2024-03-25T14:02:54;8.32;;;3.10;;
58294;SDS011;45705;55.592;37.460;2024-03-25T14:05:23;10.23;;;4.78;;
58294;SDS011;45705;55.592;37.460;2024-03-25T14:07:49;5.47;;;2.70;;
58294;SDS011;45705;55.592;37.460;2024-03-25T14:10:15;6.30;;;2.78;;
58294;SDS011;45705;55.592;37.460;2024-03-25T14:12:43;10.27;;;2.70;;
58294;SDS011;45705;55.592;37.460;2024-03-25T14:15:09;8.63;;;2.95;;
58294;SDS011;45705;55.592;37.460;2024-03-25T14:17:35;4.95;;;2.65;;
58294;SDS011;45705;55.592;37.460;2024-03-25T14:20:01;6.50;;;2.60;;
58294;SDS011;45705;55.592;37.460;2024-03-25T14:22:28;4.97;;;2.50;;
58294;SDS011;45705;55.592;37.460;2024-03-25T14:24:54;6.78;;;3.30;;
58294;SDS011;45705;55.592;37.460;2024-03-25T14:27:23;10.15;;;3.22;;
58294;SDS011;45705;55.592;37.460;2024-03-25T14:29:49;9.13;;;3.03;;
58294;SDS011;45705;55.592;37.460;2024-03-25T14:32:18;7.63;;;3.47;;
58294;SDS011;45705;55.592;37.460;2024-03-25T14:34:44;7.47;;;2.95;;
58294;SDS011;45705;55.592;37.460;2024-03-25T14:37:10;8.93;;;2.85;;
58294;SDS011;45705;55.592;37.460;2024-03-25T14:39:36;6.25;;;3.10;;
58294;SDS011;45705;55.592;37.460;2024-03-25T14:42:02;7.78;;;3.25;;
58294;SDS011;45705;55.592;37.460;2024-03-25T14:44:29;6.70;;;2.90;;